Anuket Opal — 3ELT2 — position and weather

sailwx.info

Track history (hours):
 
Tides and Currents Weather Stations Pressure Air Temp Water Temp Dewpoint Dewpoint Depression Visibility Wind Speed Wind Dir Waves Ship Positions

Anuket Opal

Last reported at 2017-Sep-13 13:47 UTC. Time now 2017-Sep-25 07:49 UTC.
Position S 05°11' E 010°56'.
Warning: this ship's position is 11 days out of date.

Length 122 m; draft 6.2 m.

Type: Tanker. MMSI: 356387000.

Date/timePositionNaut miles runAvg speedWind from/ knotsBaromVisibWave heightAir tempDewpointWater temp
2017-Sep-13 13:47S 05°11' E 010°56'5 3.5
2017-Sep-13 12:21S 05°16' E 010°57'1 3.2
2017-Sep-13 11:57S 05°17' E 010°57'4 2.1
2017-Sep-13 09:51S 05°13' E 010°58'1 2.3
2017-Sep-13 09:24S 05°12' E 010°58'2 2.2
2017-Sep-13 08:40S 05°10' E 010°58'0 2.4
2017-Sep-13 08:28S 05°10' E 010°58'2 2.1
2017-Sep-13 07:28S 05°08' E 010°58'1 2.1
2017-Sep-13 06:56S 05°07' E 010°59'2 1.7
2017-Sep-13 05:52S 05°05' E 010°59'9 1.2
2017-Sep-12 22:44S 05°00' E 011°07'2 6.0
2017-Sep-12 22:20S 05°02' E 011°09'2 6.0
2017-Sep-12 21:58S 05°03' E 011°10'3 6.1
2017-Sep-12 21:30S 05°05' E 011°13'3 5.7
2017-Sep-12 21:00S 05°06' E 011°15'3 5.7
2017-Sep-12 20:30S 05°05' E 011°18'3 5.8
2017-Sep-12 20:00S 05°04' E 011°21'3 6.0
2017-Sep-12 19:30S 05°04' E 011°24'3 6.2
2017-Sep-12 19:00S 05°03' E 011°27'3 5.8
2017-Sep-12 18:30S 05°01' E 011°29'3 5.5
2017-Sep-12 17:57S 04°59' E 011°30'2 0.1
2017-Sep-11 17:08S 04°58' E 011°32'1 6.5
2017-Sep-11 16:59S 04°59' E 011°32'3 6.3
2017-Sep-11 16:28S 05°02' E 011°31'3 5.8
2017-Sep-11 16:00S 05°04' E 011°29'3 5.9
2017-Sep-11 15:30S 05°04' E 011°26'3 5.9
2017-Sep-11 15:00S 05°05' E 011°23'3 5.9
2017-Sep-11 14:30S 05°06' E 011°20'3 6.0
2017-Sep-11 14:00S 05°07' E 011°17'3 6.0
2017-Sep-11 13:30S 05°08' E 011°14'3 5.9
2017-Sep-11 13:00S 05°08' E 011°12'3 6.2
2017-Sep-11 12:30S 05°09' E 011°09'3 6.2
2017-Sep-11 12:00S 05°10' E 011°06'3 6.2
2017-Sep-11 11:30S 05°11' E 011°03'3 6.1
2017-Sep-11 11:00S 05°12' E 010°60'5 0.1
2017-Sep-09 12:04S 05°17' E 010°59'0 1.3
2017-Sep-09 12:01S 05°17' E 010°59'8 1.8
2017-Sep-09 07:18S 05°08' E 010°57'2 1.7
2017-Sep-09 06:08S 05°06' E 010°56'2 0.7
2017-Sep-09 02:32S 05°09' E 010°57'0 2.9
2017-Sep-09 02:29S 05°09' E 010°57'1 1.1
2017-Sep-09 01:59S 05°08' E 010°57'  
Track history (hours):
 
Tides and Currents Weather Stations Pressure Air Temp Water Temp Dewpoint Dewpoint Depression Visibility Wind Speed Wind Dir Waves Ship Positions

Anuket Opal

Last reported at 2017-Sep-13 13:47 UTC. Time now 2017-Sep-25 07:49 UTC.
Position S 05°11' E 010°56'.
Warning: this ship's position is 11 days out of date.

Length 122 m; draft 6.2 m.

Type: Tanker. MMSI: 356387000.

Date/timePositionNaut miles runAvg speedWind from/ knotsBaromVisibWave heightAir tempDewpointWater temp
2017-Sep-13 13:47S 05°11' E 010°56'5 3.5
2017-Sep-13 12:21S 05°16' E 010°57'1 3.2
2017-Sep-13 11:57S 05°17' E 010°57'4 2.1
2017-Sep-13 09:51S 05°13' E 010°58'1 2.3
2017-Sep-13 09:24S 05°12' E 010°58'2 2.2
2017-Sep-13 08:40S 05°10' E 010°58'0 2.4
2017-Sep-13 08:28S 05°10' E 010°58'2 2.1
2017-Sep-13 07:28S 05°08' E 010°58'1 2.1
2017-Sep-13 06:56S 05°07' E 010°59'2 1.7
2017-Sep-13 05:52S 05°05' E 010°59'9 1.2
2017-Sep-12 22:44S 05°00' E 011°07'2 6.0
2017-Sep-12 22:20S 05°02' E 011°09'2 6.0
2017-Sep-12 21:58S 05°03' E 011°10'3 6.1
2017-Sep-12 21:30S 05°05' E 011°13'3 5.7
2017-Sep-12 21:00S 05°06' E 011°15'3 5.7
2017-Sep-12 20:30S 05°05' E 011°18'3 5.8
2017-Sep-12 20:00S 05°04' E 011°21'3 6.0
2017-Sep-12 19:30S 05°04' E 011°24'3 6.2
2017-Sep-12 19:00S 05°03' E 011°27'3 5.8
2017-Sep-12 18:30S 05°01' E 011°29'3 5.5
2017-Sep-12 17:57S 04°59' E 011°30'2 0.1
2017-Sep-11 17:08S 04°58' E 011°32'1 6.5
2017-Sep-11 16:59S 04°59' E 011°32'3 6.3
2017-Sep-11 16:28S 05°02' E 011°31'3 5.8
2017-Sep-11 16:00S 05°04' E 011°29'3 5.9
2017-Sep-11 15:30S 05°04' E 011°26'3 5.9
2017-Sep-11 15:00S 05°05' E 011°23'3 5.9
2017-Sep-11 14:30S 05°06' E 011°20'3 6.0
2017-Sep-11 14:00S 05°07' E 011°17'3 6.0
2017-Sep-11 13:30S 05°08' E 011°14'3 5.9
2017-Sep-11 13:00S 05°08' E 011°12'3 6.2
2017-Sep-11 12:30S 05°09' E 011°09'3 6.2
2017-Sep-11 12:00S 05°10' E 011°06'3 6.2
2017-Sep-11 11:30S 05°11' E 011°03'3 6.1
2017-Sep-11 11:00S 05°12' E 010°60'5 0.1
2017-Sep-09 12:04S 05°17' E 010°59'0 1.3
2017-Sep-09 12:01S 05°17' E 010°59'8 1.8
2017-Sep-09 07:18S 05°08' E 010°57'2 1.7
2017-Sep-09 06:08S 05°06' E 010°56'2 0.7
2017-Sep-09 02:32S 05°09' E 010°57'0 2.9
2017-Sep-09 02:29S 05°09' E 010°57'1 1.1
2017-Sep-09 01:59S 05°08' E 010°57'  

Dump ship's entire track history